createdAt,value
2018-04-17T00:00:32.887Z,0.00
2018-04-17T00:01:39.181Z,0.00
2018-04-17T00:02:45.424Z,0.00
2018-04-17T00:03:51.404Z,0.00
2018-04-17T00:04:57.491Z,0.00
2018-04-17T00:06:04.285Z,0.00
2018-04-17T00:07:10.535Z,0.00
2018-04-17T00:08:16.823Z,0.00
2018-04-17T00:09:23.107Z,0.00
2018-04-17T00:10:30.383Z,0.00
2018-04-17T00:11:35.672Z,0.00
2018-04-17T00:12:41.906Z,0.00
2018-04-17T00:13:47.693Z,0.00
2018-04-17T00:14:54.451Z,0.00
2018-04-17T00:16:00.253Z,0.00
2018-04-17T00:17:07.001Z,0.00
2018-04-17T00:18:13.278Z,0.00
2018-04-17T00:19:19.037Z,0.00
2018-04-17T00:20:25.302Z,0.00
2018-04-17T00:21:32.103Z,0.00
2018-04-17T00:22:38.393Z,0.00
2018-04-17T00:23:44.116Z,0.00
2018-04-17T00:24:50.872Z,0.00
2018-04-17T00:25:57.125Z,0.00
2018-04-17T00:27:03.443Z,0.00
2018-04-17T00:28:09.659Z,0.00
2018-04-17T00:29:15.916Z,0.00
2018-04-17T00:30:22.189Z,0.00
2018-04-17T00:31:27.971Z,0.00
2018-04-17T00:32:34.225Z,0.00
2018-04-17T00:33:40.492Z,0.00
2018-04-17T00:34:47.255Z,0.00
2018-04-17T00:35:53.498Z,0.00
2018-04-17T00:37:00.289Z,0.00
2018-04-17T00:38:06.027Z,0.00
2018-04-17T00:39:12.384Z,0.00
2018-04-17T00:40:18.549Z,0.00
2018-04-17T00:41:24.903Z,0.00
2018-04-17T00:42:31.056Z,0.00
2018-04-17T00:43:37.321Z,0.00
2018-04-17T00:44:43.705Z,0.00
2018-04-17T00:45:49.843Z,0.00
2018-04-17T00:46:56.135Z,0.00
2018-04-17T00:48:01.866Z,0.00
2018-04-17T00:49:08.615Z,0.00
2018-04-17T00:50:14.875Z,0.00
2018-04-17T00:51:20.669Z,0.00
2018-04-17T00:52:27.458Z,0.00
2018-04-17T00:53:33.666Z,0.00
2018-04-17T00:54:39.915Z,0.00
2018-04-17T00:55:46.176Z,0.00
2018-04-17T00:56:52.498Z,0.00
2018-04-17T00:57:58.683Z,0.00
2018-04-17T00:59:04.455Z,0.00
2018-04-17T01:00:10.712Z,0.00
2018-04-17T01:01:16.999Z,0.00
2018-04-17T01:02:23.722Z,0.00
2018-04-17T01:03:29.978Z,0.00
2018-04-17T01:04:36.234Z,0.00
2018-04-17T01:05:42.497Z,0.00
2018-04-17T01:06:48.284Z,0.00
2018-04-17T01:07:55.000Z,0.00
2018-04-17T01:09:01.259Z,0.00
2018-04-17T01:10:07.512Z,0.00
2018-04-17T01:11:13.787Z,0.00
2018-04-17T01:12:20.021Z,0.00
2018-04-17T01:13:26.386Z,0.00
2018-04-17T01:14:32.051Z,0.00
2018-04-17T01:15:38.795Z,0.00
2018-04-17T01:16:46.065Z,0.00
2018-04-17T01:17:51.299Z,0.00
2018-04-17T01:18:57.553Z,0.00
2018-04-17T01:20:03.814Z,0.00
2018-04-17T01:21:10.062Z,0.00
2018-04-17T01:22:16.408Z,0.00
2018-04-17T01:23:22.555Z,0.00
2018-04-17T01:24:28.803Z,0.00
2018-04-17T01:25:35.062Z,0.00
2018-04-17T01:26:41.327Z,0.00
2018-04-17T01:27:47.561Z,0.00
2018-04-17T01:28:53.306Z,0.00
2018-04-17T01:29:59.555Z,0.00
2018-04-17T01:31:06.390Z,0.00
2018-04-17T01:32:12.082Z,0.00
2018-04-17T01:33:18.801Z,0.00
2018-04-17T01:34:24.583Z,0.00
2018-04-17T01:35:32.387Z,0.00
2018-04-17T01:36:37.627Z,0.00
2018-04-17T01:37:43.808Z,0.00
2018-04-17T01:38:49.557Z,0.00
2018-04-17T01:39:56.308Z,0.00
2018-04-17T01:41:02.557Z,0.00
2018-04-17T01:42:08.806Z,0.00
2018-04-17T01:43:15.034Z,0.00
2018-04-17T01:44:21.275Z,0.00
2018-04-17T01:45:27.519Z,0.00
2018-04-17T01:46:33.789Z,0.00
2018-04-17T01:47:39.517Z,0.00
2018-04-17T01:48:46.274Z,0.00
2018-04-17T01:49:52.018Z,0.00
2018-04-17T01:50:58.254Z,0.00
2018-04-17T01:52:04.528Z,0.00
2018-04-17T01:53:11.249Z,0.00
2018-04-17T01:54:17.505Z,0.00
2018-04-17T01:55:23.739Z,0.00
2018-04-17T01:56:29.509Z,0.00
2018-04-17T01:57:36.232Z,0.00
2018-04-17T01:58:42.483Z,0.00
2018-04-17T01:59:48.719Z,0.00
2018-04-17T02:00:54.967Z,0.00
2018-04-17T02:02:01.232Z,0.00
2018-04-17T02:03:07.476Z,0.00
2018-04-17T02:04:13.220Z,0.00
2018-04-17T02:05:19.962Z,0.00
2018-04-17T02:06:26.234Z,0.00
2018-04-17T02:07:33.449Z,0.00
2018-04-17T02:08:38.710Z,0.00
2018-04-17T02:09:44.459Z,0.00
2018-04-17T02:10:50.704Z,0.00
2018-04-17T02:11:57.465Z,0.00
2018-04-17T02:13:03.704Z,0.00
2018-04-17T02:14:09.945Z,0.00
2018-04-17T02:15:16.186Z,0.00
2018-04-17T02:16:22.444Z,0.00
2018-04-17T02:17:28.706Z,0.00
2018-04-17T02:18:34.941Z,0.00
2018-04-17T02:19:41.182Z,0.00
2018-04-17T02:20:47.432Z,0.00
2018-04-17T02:21:53.206Z,0.00
2018-04-17T02:22:59.928Z,0.00
2018-04-17T02:24:06.203Z,0.00
2018-04-17T02:25:12.465Z,0.00
2018-04-17T02:26:18.677Z,0.00
2018-04-17T02:27:24.443Z,0.00
2018-04-17T02:28:31.168Z,0.00
2018-04-17T02:29:37.416Z,0.00
2018-04-17T02:30:43.648Z,0.00
2018-04-17T02:31:49.435Z,0.00
2018-04-17T02:32:55.658Z,0.00
2018-04-17T02:34:01.899Z,0.00
2018-04-17T02:35:08.632Z,0.00
2018-04-17T02:36:14.872Z,0.00
2018-04-17T02:37:21.139Z,0.00
2018-04-17T02:38:27.359Z,0.00
2018-04-17T02:39:33.597Z,0.00
2018-04-17T02:40:39.822Z,0.00
2018-04-17T02:41:46.085Z,0.00
2018-04-17T02:42:52.380Z,0.00
2018-04-17T02:43:58.046Z,0.00
2018-04-17T02:45:04.797Z,0.00
2018-04-17T02:46:12.026Z,0.00
2018-04-17T02:47:17.282Z,0.00
2018-04-17T02:48:23.503Z,0.00
2018-04-17T02:49:29.244Z,0.00
2018-04-17T02:50:35.971Z,0.00
2018-04-17T02:51:41.753Z,0.00
2018-04-17T02:52:48.451Z,0.00
2018-04-17T02:53:54.695Z,0.00
2018-04-17T02:55:00.444Z,0.00
2018-04-17T02:56:06.871Z,0.00
2018-04-17T02:57:13.423Z,0.00
2018-04-17T02:58:19.643Z,0.00
2018-04-17T02:59:25.887Z,0.00
2018-04-17T03:00:32.135Z,0.00
2018-04-17T03:01:38.892Z,0.00
2018-04-17T03:02:45.607Z,0.00
2018-04-17T03:03:50.847Z,0.00
2018-04-17T03:04:56.607Z,0.00
2018-04-17T03:06:03.341Z,0.00
2018-04-17T03:07:09.595Z,0.00
2018-04-17T03:08:15.339Z,0.00
2018-04-17T03:09:22.073Z,0.00
2018-04-17T03:10:28.387Z,0.00
2018-04-17T03:11:35.544Z,0.00
2018-04-17T03:12:40.829Z,0.00
2018-04-17T03:13:47.025Z,0.00
2018-04-17T03:14:52.787Z,0.00
2018-04-17T03:15:59.516Z,0.00
2018-04-17T03:17:05.773Z,0.00
2018-04-17T03:18:11.995Z,0.00
2018-04-17T03:19:18.231Z,0.00
2018-04-17T03:20:24.479Z,0.00
2018-04-17T03:21:30.718Z,0.00
2018-04-17T03:22:36.484Z,0.00
2018-04-17T03:23:43.182Z,0.00
2018-04-17T03:24:49.441Z,0.00
2018-04-17T03:25:55.203Z,0.00
2018-04-17T03:27:01.934Z,0.00
2018-04-17T03:28:08.152Z,0.00
2018-04-17T03:29:14.389Z,0.00
2018-04-17T03:30:20.626Z,0.00
2018-04-17T03:31:26.376Z,0.00
2018-04-17T03:32:33.129Z,0.00
2018-04-17T03:33:38.858Z,0.00
2018-04-17T03:34:45.589Z,0.00
2018-04-17T03:35:51.848Z,0.00
2018-04-17T03:36:58.098Z,0.00
2018-04-17T03:38:04.385Z,0.00
2018-04-17T03:39:10.567Z,0.00
2018-04-17T03:40:16.804Z,0.00
2018-04-17T03:41:23.055Z,0.00
2018-04-17T03:42:29.307Z,0.00
2018-04-17T03:43:35.532Z,0.00
2018-04-17T03:44:41.783Z,0.00
2018-04-17T03:45:48.028Z,0.00
2018-04-17T03:46:53.827Z,0.00
2018-04-17T03:48:00.517Z,0.00
2018-04-17T03:49:06.755Z,0.00
2018-04-17T03:50:13.015Z,0.00
2018-04-17T03:51:18.750Z,0.00
2018-04-17T03:52:25.035Z,0.00
2018-04-17T03:53:31.735Z,0.00
2018-04-17T03:54:37.986Z,0.00
2018-04-17T03:55:44.230Z,0.00
2018-04-17T03:56:50.502Z,0.00
2018-04-17T03:57:56.720Z,0.00
2018-04-17T03:59:02.972Z,0.00
2018-04-17T04:00:09.197Z,0.00
2018-04-17T04:01:15.449Z,0.00
2018-04-17T04:02:21.714Z,0.00
2018-04-17T04:03:27.932Z,0.00
2018-04-17T04:04:34.165Z,0.00
2018-04-17T04:05:40.418Z,0.00
2018-04-17T04:06:46.665Z,0.00
2018-04-17T04:07:52.429Z,0.00
2018-04-17T04:08:59.140Z,0.00
2018-04-17T04:10:05.400Z,0.00
2018-04-17T04:11:11.640Z,0.00
2018-04-17T04:12:17.900Z,0.00
2018-04-17T04:13:24.132Z,0.00
2018-04-17T04:14:30.380Z,0.00
2018-04-17T04:15:36.119Z,0.00
2018-04-17T04:16:42.848Z,0.00
2018-04-17T04:17:48.617Z,0.00
2018-04-17T04:18:54.839Z,0.00
2018-04-17T04:20:01.582Z,0.00
2018-04-17T04:21:07.332Z,0.00
2018-04-17T04:22:13.589Z,5.63
2018-04-17T04:23:21.303Z,5.63
2018-04-17T04:24:26.051Z,5.63
2018-04-17T04:25:32.782Z,5.63
2018-04-17T04:26:39.023Z,5.63
2018-04-17T04:27:44.794Z,5.63
2018-04-17T04:28:51.506Z,11.25
2018-04-17T04:29:57.255Z,11.25
2018-04-17T04:31:03.496Z,11.25
2018-04-17T04:32:10.228Z,11.25
2018-04-17T04:33:16.492Z,11.25
2018-04-17T04:34:22.202Z,16.88
2018-04-17T04:35:28.924Z,16.88
2018-04-17T04:36:35.177Z,16.88
2018-04-17T04:37:41.434Z,16.88
2018-04-17T04:38:47.637Z,22.50
2018-04-17T04:39:53.866Z,22.50
2018-04-17T04:41:00.110Z,22.50
2018-04-17T04:42:06.379Z,28.13
2018-04-17T04:43:12.598Z,28.13
2018-04-17T04:44:19.261Z,28.13
2018-04-17T04:45:25.025Z,33.75
2018-04-17T04:46:31.284Z,33.75
2018-04-17T04:47:37.010Z,33.75
2018-04-17T04:48:43.715Z,39.38
2018-04-17T04:49:49.940Z,39.38
2018-04-17T04:50:56.170Z,45.00
2018-04-17T04:52:02.424Z,45.00
2018-04-17T04:53:08.645Z,45.00
2018-04-17T04:54:14.342Z,50.63
2018-04-17T04:55:21.073Z,50.63
2018-04-17T04:56:27.294Z,56.25
2018-04-17T04:57:33.043Z,56.25
2018-04-17T04:58:39.741Z,61.88
2018-04-17T04:59:46.952Z,67.50
2018-04-17T05:00:51.697Z,67.50
2018-04-17T05:01:58.410Z,73.13
2018-04-17T05:03:04.731Z,73.13
2018-04-17T05:04:10.868Z,78.75
2018-04-17T05:05:17.088Z,84.38
2018-04-17T05:06:22.842Z,90.00
2018-04-17T05:07:29.050Z,90.00
2018-04-17T05:08:35.778Z,90.00
2018-04-17T05:09:41.981Z,95.63
2018-04-17T05:10:48.228Z,95.63
2018-04-17T05:11:54.449Z,95.63
2018-04-17T05:13:00.680Z,95.63
2018-04-17T05:14:06.401Z,101.25
2018-04-17T05:15:13.125Z,101.25
2018-04-17T05:16:19.352Z,101.25
2018-04-17T05:17:25.569Z,106.88
2018-04-17T05:18:31.880Z,106.88
2018-04-17T05:19:37.547Z,106.88
2018-04-17T05:21:50.008Z,112.50
2018-04-17T05:22:56.265Z,112.50
2018-04-17T05:24:02.960Z,112.50
2018-04-17T05:25:09.208Z,118.13
2018-04-17T05:26:14.945Z,118.13
2018-04-17T05:27:21.683Z,123.75
2018-04-17T05:28:27.429Z,123.75
2018-04-17T05:29:34.145Z,129.38
2018-04-17T05:30:40.377Z,129.38
2018-04-17T05:31:46.628Z,129.38
2018-04-17T05:32:52.880Z,129.38
2018-04-17T05:33:59.108Z,129.38
2018-04-17T05:35:05.355Z,135.00
2018-04-17T05:36:11.096Z,140.63
2018-04-17T05:37:17.826Z,140.63
2018-04-17T05:38:24.092Z,140.63
2018-04-17T05:39:30.377Z,146.25
2018-04-17T05:40:36.565Z,140.63
2018-04-17T05:41:42.328Z,146.25
2018-04-17T05:42:48.591Z,146.25
2018-04-17T05:43:55.320Z,151.88
2018-04-17T05:45:01.575Z,151.88
2018-04-17T05:46:07.828Z,157.50
2018-04-17T05:47:13.605Z,157.50
2018-04-17T05:48:20.407Z,157.50
2018-04-17T05:49:26.622Z,157.50
2018-04-17T05:50:32.363Z,157.50
2018-04-17T05:51:39.124Z,163.13
2018-04-17T05:52:44.915Z,168.75
2018-04-17T05:53:51.159Z,174.38
2018-04-17T05:54:57.907Z,180.00
2018-04-17T05:56:04.176Z,191.25
2018-04-17T05:57:10.443Z,202.50
2018-04-17T05:58:16.745Z,213.75
2018-04-17T05:59:22.979Z,213.75
2018-04-17T06:00:28.764Z,219.38
2018-04-17T06:01:35.549Z,225.00
2018-04-17T06:02:41.824Z,225.00
2018-04-17T06:03:48.117Z,225.00
2018-04-17T06:04:54.384Z,225.00
2018-04-17T06:06:00.656Z,219.38
2018-04-17T06:07:06.955Z,219.38
2018-04-17T06:08:13.246Z,219.38
2018-04-17T06:09:19.530Z,219.38
2018-04-17T06:10:25.812Z,219.38
2018-04-17T06:11:32.097Z,213.75
2018-04-17T06:12:38.386Z,213.75
2018-04-17T06:13:44.725Z,213.75
2018-04-17T06:14:50.969Z,219.38
2018-04-17T06:15:57.259Z,230.63
2018-04-17T06:17:03.061Z,236.25
2018-04-17T06:18:09.924Z,236.25
2018-04-17T06:19:16.151Z,241.88
2018-04-17T06:20:22.444Z,241.88
2018-04-17T06:21:28.758Z,236.25
2018-04-17T06:22:35.049Z,241.88
2018-04-17T06:23:40.881Z,253.13
2018-04-17T06:24:47.155Z,258.75
2018-04-17T06:25:53.970Z,264.38
2018-04-17T06:27:00.267Z,264.38
2018-04-17T06:28:06.611Z,270.00
2018-04-17T06:29:12.920Z,270.00
2018-04-17T06:30:19.228Z,275.63
2018-04-17T06:31:25.555Z,275.63
2018-04-17T06:32:31.879Z,281.25
2018-04-17T06:33:38.253Z,292.50
2018-04-17T06:34:44.549Z,303.75
2018-04-17T06:35:50.872Z,320.63
2018-04-17T06:36:57.237Z,337.50
2018-04-17T06:38:03.593Z,337.50
2018-04-17T06:39:10.904Z,348.75
2018-04-17T06:40:15.766Z,348.75
2018-04-17T06:41:22.628Z,348.75
2018-04-17T06:42:28.945Z,348.75
2018-04-17T06:43:35.353Z,337.50
2018-04-17T06:44:41.194Z,320.63
2018-04-17T06:45:47.563Z,309.38
2018-04-17T06:46:54.409Z,298.13
2018-04-17T06:48:00.797Z,286.88
2018-04-17T06:49:07.145Z,281.25
2018-04-17T06:50:13.500Z,275.63
2018-04-17T06:51:19.861Z,270.00
2018-04-17T06:52:26.222Z,264.38
2018-04-17T06:53:32.589Z,258.75
2018-04-17T06:54:38.934Z,253.13
2018-04-17T06:55:45.283Z,247.50
2018-04-17T06:56:51.642Z,247.50
2018-04-17T06:57:58.059Z,247.50
2018-04-17T06:59:03.862Z,241.88
2018-04-17T07:00:10.218Z,241.88
2018-04-17T07:01:16.586Z,236.25
2018-04-17T07:02:23.421Z,236.25
2018-04-17T07:03:29.815Z,230.63
2018-04-17T07:04:36.146Z,225.00
2018-04-17T07:05:42.008Z,225.00
2018-04-17T07:06:48.865Z,219.38
2018-04-17T07:07:55.221Z,219.38
2018-04-17T07:09:01.602Z,225.00
2018-04-17T07:10:07.939Z,225.00
2018-04-17T07:11:14.375Z,225.00
2018-04-17T07:12:20.669Z,225.00
2018-04-17T07:13:27.070Z,230.63
2018-04-17T07:14:33.421Z,241.88
2018-04-17T07:15:39.785Z,247.50
2018-04-17T07:16:46.155Z,253.13
2018-04-17T07:17:52.038Z,258.75
2018-04-17T07:18:58.926Z,264.38
2018-04-17T07:20:06.277Z,264.38
2018-04-17T07:21:11.169Z,264.38
2018-04-17T07:22:18.044Z,264.38
2018-04-17T07:23:23.973Z,264.38
2018-04-17T07:24:30.319Z,253.13
2018-04-17T07:25:37.198Z,247.50
2018-04-17T07:26:43.086Z,247.50
2018-04-17T07:27:49.983Z,241.88
2018-04-17T07:28:56.413Z,236.25
2018-04-17T07:30:02.736Z,225.00
2018-04-17T07:31:09.129Z,225.00
2018-04-17T07:32:15.521Z,225.00
2018-04-17T07:33:21.417Z,225.00
2018-04-17T07:34:27.819Z,225.00
2018-04-17T07:35:34.653Z,225.00
2018-04-17T07:36:40.542Z,230.63
2018-04-17T07:37:47.429Z,230.63
2018-04-17T07:38:53.833Z,236.25
2018-04-17T07:40:00.204Z,236.25
2018-04-17T07:41:06.634Z,241.88
2018-04-17T07:42:12.977Z,247.50
2018-04-17T07:43:19.393Z,247.50
2018-04-17T07:44:25.776Z,253.13
2018-04-17T07:45:31.645Z,253.13
2018-04-17T07:46:38.542Z,258.75
2018-04-17T07:47:44.938Z,258.75
2018-04-17T07:48:50.843Z,258.75
2018-04-17T07:49:57.715Z,253.13
2018-04-17T07:51:04.109Z,253.13
2018-04-17T07:52:10.502Z,253.13
2018-04-17T07:53:17.913Z,253.13
2018-04-17T07:54:23.280Z,253.13
2018-04-17T07:55:29.692Z,253.13
2018-04-17T07:56:36.093Z,253.13
2018-04-17T07:57:42.471Z,253.13
2018-04-17T07:58:48.905Z,253.13
2018-04-17T07:59:55.268Z,253.13
2018-04-17T08:01:01.675Z,253.13
2018-04-17T08:02:08.074Z,258.75
2018-04-17T08:03:14.459Z,258.75
2018-04-17T08:04:20.887Z,264.38
2018-04-17T08:05:26.766Z,275.63
2018-04-17T08:06:33.177Z,275.63
2018-04-17T08:07:40.083Z,275.63
2018-04-17T08:08:46.500Z,275.63
2018-04-17T08:09:52.398Z,270.00
2018-04-17T08:10:59.307Z,270.00
2018-04-17T08:12:05.222Z,264.38
2018-04-17T08:13:12.146Z,258.75
2018-04-17T08:14:18.093Z,258.75
2018-04-17T08:15:24.485Z,258.75
2018-04-17T08:16:30.917Z,258.75
2018-04-17T08:17:38.417Z,258.75
2018-04-17T08:18:43.824Z,258.75
2018-04-17T08:19:50.220Z,258.75
2018-04-17T08:20:56.668Z,258.75
2018-04-17T08:22:03.095Z,258.75
2018-04-17T08:23:09.542Z,258.75
2018-04-17T08:24:16.495Z,258.75
2018-04-17T08:25:22.909Z,264.38
2018-04-17T08:26:28.860Z,264.38
2018-04-17T08:27:35.307Z,270.00
2018-04-17T08:28:42.278Z,270.00
2018-04-17T08:29:48.201Z,281.25
2018-04-17T08:30:54.662Z,281.25
2018-04-17T08:32:01.093Z,281.25
2018-04-17T08:33:07.552Z,286.88
2018-04-17T08:34:14.513Z,286.88
2018-04-17T08:35:20.968Z,286.88
2018-04-17T08:36:26.920Z,286.88
2018-04-17T08:37:33.382Z,292.50
2018-04-17T08:38:39.867Z,292.50
2018-04-17T08:39:46.297Z,292.50
2018-04-17T08:40:54.264Z,292.50
2018-04-17T08:41:59.239Z,292.50
2018-04-17T08:43:06.191Z,292.50
2018-04-17T08:44:12.686Z,286.88
2018-04-17T08:45:18.647Z,286.88
2018-04-17T08:46:25.115Z,292.50
2018-04-17T08:47:31.589Z,292.50
2018-04-17T08:48:38.102Z,298.13
2018-04-17T08:49:45.045Z,292.50
2018-04-17T08:50:51.025Z,292.50
2018-04-17T08:51:57.987Z,292.50
2018-04-17T08:53:05.468Z,292.50
2018-04-17T08:54:10.476Z,292.50
2018-04-17T08:55:16.946Z,292.50
2018-04-17T08:56:23.436Z,292.50
2018-04-17T08:57:30.391Z,298.13
2018-04-17T08:58:36.894Z,298.13
2018-04-17T08:59:42.906Z,298.13
2018-04-17T09:00:49.868Z,292.50
2018-04-17T09:01:56.386Z,292.50
2018-04-17T09:03:02.817Z,292.50
2018-04-17T09:04:08.843Z,292.50
2018-04-17T09:05:15.309Z,292.50
2018-04-17T09:06:21.807Z,292.50
2018-04-17T09:07:28.415Z,292.50
2018-04-17T09:08:35.274Z,292.50
2018-04-17T09:09:41.305Z,292.50
2018-04-17T09:10:48.085Z,292.50
2018-04-17T09:11:54.276Z,286.88
2018-04-17T09:13:01.301Z,286.88
2018-04-17T09:14:07.294Z,286.88
2018-04-17T09:15:14.279Z,292.50
2018-04-17T09:16:20.779Z,298.13
2018-04-17T09:17:26.780Z,298.13
2018-04-17T09:18:33.781Z,298.13
2018-04-17T09:19:39.819Z,298.13
2018-04-17T09:20:46.810Z,298.13
2018-04-17T09:21:52.824Z,298.13
2018-04-17T09:22:59.344Z,298.13
2018-04-17T09:24:05.870Z,298.13
2018-04-17T09:25:12.872Z,298.13
2018-04-17T09:26:18.888Z,298.13
2018-04-17T09:27:25.897Z,303.75
2018-04-17T09:28:32.447Z,303.75
2018-04-17T09:29:38.470Z,303.75
2018-04-17T09:30:44.972Z,303.75
2018-04-17T09:31:51.984Z,298.13
2018-04-17T09:32:58.019Z,298.13
2018-04-17T09:34:04.563Z,292.50
2018-04-17T09:35:11.069Z,292.50
2018-04-17T09:36:17.594Z,298.13
2018-04-17T09:37:24.135Z,298.13
2018-04-17T09:38:31.160Z,298.13
2018-04-17T09:39:37.703Z,298.13
2018-04-17T09:40:44.208Z,298.13
2018-04-17T09:41:50.737Z,292.50
2018-04-17T09:42:57.291Z,292.50
2018-04-17T09:44:03.829Z,292.50
2018-04-17T09:45:10.389Z,292.50
2018-04-17T09:46:16.423Z,292.50
2018-04-17T09:47:22.936Z,298.13
2018-04-17T09:48:29.960Z,298.13
2018-04-17T09:49:36.019Z,303.75
2018-04-17T09:50:43.056Z,303.75
2018-04-17T09:51:49.580Z,303.75
2018-04-17T09:52:56.127Z,303.75
2018-04-17T09:54:02.678Z,303.75
2018-04-17T09:55:08.700Z,303.75
2018-04-17T09:56:15.751Z,298.13
2018-04-17T09:57:22.378Z,292.50
2018-04-17T09:58:28.341Z,292.50
2018-04-17T09:59:34.917Z,292.50
2018-04-17T10:00:41.456Z,292.50
2018-04-17T10:01:48.482Z,298.13
2018-04-17T10:02:55.037Z,303.75
2018-04-17T10:04:01.125Z,303.75
2018-04-17T10:05:07.660Z,303.75
2018-04-17T10:06:14.696Z,303.75
2018-04-17T10:07:21.257Z,298.13
2018-04-17T10:08:27.818Z,292.50
2018-04-17T10:09:33.902Z,292.50
2018-04-17T10:10:40.444Z,292.50
2018-04-17T10:11:47.500Z,292.50
2018-04-17T10:12:53.549Z,292.50
2018-04-17T10:14:00.655Z,298.13
2018-04-17T10:15:07.192Z,298.13
2018-04-17T10:16:13.234Z,303.75
2018-04-17T10:17:20.379Z,303.75
2018-04-17T10:18:26.853Z,303.75
2018-04-17T10:19:32.957Z,298.13
2018-04-17T10:20:39.986Z,298.13
2018-04-17T10:21:46.067Z,298.13
2018-04-17T10:22:53.133Z,298.13
2018-04-17T10:23:59.714Z,298.13
2018-04-17T10:25:05.776Z,298.13
2018-04-17T10:26:12.831Z,303.75
2018-04-17T10:27:18.909Z,309.38
2018-04-17T10:28:25.514Z,309.38
2018-04-17T10:29:32.590Z,309.38
2018-04-17T10:30:38.638Z,309.38
2018-04-17T10:31:45.691Z,309.38
2018-04-17T10:32:51.770Z,309.38
2018-04-17T10:33:58.868Z,315.00
2018-04-17T10:35:04.923Z,315.00
2018-04-17T10:36:11.997Z,320.63
2018-04-17T10:37:18.083Z,315.00
2018-04-17T10:38:25.159Z,320.63
2018-04-17T10:39:31.268Z,320.63
2018-04-17T10:40:38.381Z,326.25
2018-04-17T10:41:44.407Z,331.88
2018-04-17T10:42:51.506Z,337.50
2018-04-17T10:43:57.575Z,337.50
2018-04-17T10:45:04.681Z,337.50
2018-04-17T10:46:10.761Z,337.50
2018-04-17T10:47:17.348Z,337.50
2018-04-17T10:48:23.929Z,337.50
2018-04-17T10:49:30.562Z,343.13
2018-04-17T10:50:37.428Z,337.50
2018-04-17T10:51:43.715Z,343.13
2018-04-17T10:52:50.319Z,348.75
2018-04-17T10:53:56.937Z,343.13
2018-04-17T10:55:04.035Z,337.50
2018-04-17T10:56:10.637Z,337.50
2018-04-17T10:57:17.224Z,343.13
2018-04-17T10:58:23.347Z,343.13
2018-04-17T10:59:29.971Z,348.75
2018-04-17T11:00:36.569Z,354.38
2018-04-17T11:01:43.171Z,360.00
2018-04-17T11:02:50.378Z,365.63
2018-04-17T11:03:56.903Z,371.25
2018-04-17T11:05:03.550Z,365.63
2018-04-17T11:06:10.131Z,365.63
2018-04-17T11:07:16.754Z,371.25
2018-04-17T11:08:22.889Z,376.88
2018-04-17T11:09:29.528Z,371.25
2018-04-17T11:10:36.642Z,371.25
2018-04-17T11:11:43.256Z,371.25
2018-04-17T11:12:49.885Z,365.63
2018-04-17T11:13:56.533Z,371.25
2018-04-17T11:15:03.188Z,371.25
2018-04-17T11:16:09.796Z,382.50
2018-04-17T11:17:16.461Z,393.75
2018-04-17T11:18:23.132Z,393.75
2018-04-17T11:19:29.392Z,399.38
2018-04-17T11:20:36.634Z,405.00
2018-04-17T11:21:43.492Z,410.63
2018-04-17T11:22:49.873Z,416.25
2018-04-17T11:23:56.818Z,444.38
2018-04-17T11:25:03.788Z,590.63
2018-04-17T11:26:10.761Z,714.38
2018-04-17T11:27:17.786Z,725.63
2018-04-17T11:28:24.833Z,742.50
2018-04-17T11:29:31.954Z,742.50
2018-04-17T11:30:39.540Z,736.88
2018-04-17T11:31:46.193Z,748.13
2018-04-17T11:32:53.839Z,748.13
2018-04-17T11:34:00.543Z,748.13
2018-04-17T11:35:08.285Z,748.13
2018-04-17T11:36:14.995Z,736.88
2018-04-17T11:37:22.739Z,742.50
2018-04-17T11:38:29.509Z,736.88
2018-04-17T11:39:36.817Z,736.88
2018-04-17T11:40:44.094Z,748.13
2018-04-17T11:41:51.905Z,736.88
2018-04-17T11:42:59.265Z,742.50
2018-04-17T11:44:06.098Z,753.75
2018-04-17T11:45:13.457Z,753.75
2018-04-17T11:46:20.804Z,753.75
2018-04-17T11:47:28.169Z,753.75
2018-04-17T11:48:35.574Z,753.75
2018-04-17T11:49:43.494Z,753.75
2018-04-17T11:50:50.886Z,748.13
2018-04-17T11:51:57.831Z,748.13
2018-04-17T11:53:05.279Z,748.13
2018-04-17T11:54:13.227Z,725.63
2018-04-17T11:55:20.222Z,720.00
2018-04-17T11:56:27.668Z,714.38
2018-04-17T11:57:35.674Z,725.63
2018-04-17T11:58:43.608Z,720.00
2018-04-17T11:59:50.106Z,725.63
2018-04-17T12:00:57.559Z,736.88
2018-04-17T12:02:05.064Z,731.25
2018-04-17T12:03:13.025Z,742.50
2018-04-17T12:04:20.020Z,736.88
2018-04-17T12:05:27.542Z,731.25
2018-04-17T12:06:35.009Z,725.63
2018-04-17T12:07:42.512Z,736.88
2018-04-17T12:08:50.036Z,731.25
2018-04-17T12:09:57.574Z,731.25
2018-04-17T12:11:05.061Z,742.50
2018-04-17T12:12:12.578Z,736.88
2018-04-17T12:13:20.102Z,736.88
2018-04-17T12:14:27.626Z,736.88
2018-04-17T12:15:35.125Z,736.88
2018-04-17T12:16:42.641Z,736.88
2018-04-17T12:17:50.159Z,742.50
2018-04-17T12:18:57.647Z,731.25
2018-04-17T12:20:05.668Z,731.25
2018-04-17T12:21:12.670Z,731.25
2018-04-17T12:22:20.191Z,720.00
2018-04-17T12:23:27.729Z,725.63
2018-04-17T12:24:35.259Z,708.75
2018-04-17T12:25:42.752Z,714.38
2018-04-17T12:26:50.378Z,697.50
2018-04-17T12:27:57.802Z,720.00
2018-04-17T12:29:05.814Z,725.63
2018-04-17T12:30:12.867Z,720.00
2018-04-17T12:31:20.868Z,714.38
2018-04-17T12:32:27.896Z,708.75
2018-04-17T12:33:35.409Z,708.75
2018-04-17T12:34:43.456Z,703.13
2018-04-17T12:35:50.491Z,708.75
2018-04-17T12:36:58.513Z,703.13
2018-04-17T12:38:06.046Z,697.50
2018-04-17T12:39:13.562Z,691.88
2018-04-17T12:40:21.118Z,697.50
2018-04-17T12:41:28.119Z,697.50
2018-04-17T12:42:36.655Z,703.13
2018-04-17T12:43:43.683Z,697.50
2018-04-17T12:44:51.239Z,697.50
2018-04-17T12:45:58.243Z,691.88
2018-04-17T12:47:07.348Z,691.88
2018-04-17T12:48:13.286Z,697.50
2018-04-17T12:49:20.829Z,691.88
2018-04-17T12:50:28.383Z,697.50
2018-04-17T12:51:37.417Z,720.00
2018-04-17T12:52:43.526Z,753.75
2018-04-17T12:53:50.989Z,753.75
2018-04-17T12:54:58.569Z,759.38
2018-04-17T12:56:06.098Z,753.75
2018-04-17T12:57:14.134Z,753.75
2018-04-17T12:58:21.203Z,753.75
2018-04-17T12:59:28.752Z,753.75
2018-04-17T13:00:36.434Z,742.50
2018-04-17T13:01:43.890Z,731.25
2018-04-17T13:02:52.460Z,748.13
2018-04-17T13:03:59.541Z,759.38
2018-04-17T13:05:06.663Z,753.75
2018-04-17T13:06:14.239Z,736.88
2018-04-17T13:07:21.862Z,714.38
2018-04-17T13:08:29.994Z,691.88
2018-04-17T13:09:37.149Z,675.00
2018-04-17T13:10:44.803Z,669.38
2018-04-17T13:11:52.425Z,663.75
2018-04-17T13:13:00.113Z,663.75
2018-04-17T13:14:07.769Z,635.63
2018-04-17T13:15:15.487Z,663.75
2018-04-17T13:16:23.615Z,663.75
2018-04-17T13:17:31.335Z,663.75
2018-04-17T13:18:38.961Z,663.75
2018-04-17T13:19:46.127Z,663.75
2018-04-17T13:20:53.750Z,663.75
2018-04-17T13:22:01.412Z,663.75
2018-04-17T13:23:09.528Z,663.75
2018-04-17T13:24:17.139Z,663.75
2018-04-17T13:25:24.273Z,669.38
2018-04-17T13:26:31.845Z,675.00
2018-04-17T13:27:39.917Z,686.25
2018-04-17T13:28:47.017Z,680.63
2018-04-17T13:29:54.595Z,686.25
2018-04-17T13:31:03.142Z,675.00
2018-04-17T13:32:09.736Z,663.75
2018-04-17T13:33:17.326Z,658.13
2018-04-17T13:34:24.847Z,663.75
2018-04-17T13:35:32.929Z,663.75
2018-04-17T13:36:40.468Z,669.38
2018-04-17T13:37:47.559Z,669.38
2018-04-17T13:38:55.617Z,669.38
2018-04-17T13:40:02.693Z,669.38
2018-04-17T13:41:10.240Z,675.00
2018-04-17T13:42:17.788Z,669.38
2018-04-17T13:43:25.346Z,658.13
2018-04-17T13:44:32.868Z,652.50
2018-04-17T13:45:40.435Z,646.88
2018-04-17T13:46:47.947Z,646.88
2018-04-17T13:47:55.503Z,641.25
2018-04-17T13:49:03.025Z,641.25
2018-04-17T13:50:10.585Z,646.88
2018-04-17T13:51:18.610Z,641.25
2018-04-17T13:52:26.156Z,635.63
2018-04-17T13:53:33.718Z,635.63
2018-04-17T13:54:41.259Z,630.00
2018-04-17T13:55:48.419Z,635.63
2018-04-17T13:56:55.872Z,641.25
2018-04-17T13:59:11.556Z,641.25
2018-04-17T14:00:19.052Z,641.25
2018-04-17T14:01:26.600Z,641.25
2018-04-17T14:02:33.667Z,708.75
2018-04-17T14:03:41.162Z,708.75
2018-04-17T14:04:48.720Z,714.38
2018-04-17T14:05:56.780Z,720.00
2018-04-17T14:07:04.384Z,720.00
2018-04-17T14:08:11.401Z,720.00
2018-04-17T14:09:18.981Z,742.50
2018-04-17T14:10:27.074Z,736.88